Time,TemperatureF,DewpointF,PressureIn,WindDirection,WindDirectionDegrees,WindSpeedMPH,WindSpeedGustMPH,Humidity,HourlyPrecipIn,Conditions,Clouds,dailyrainin,SoftwareType,DateUTC
2013-01-03 00:00:00,30.2,16.4,30.11,West,263,3.1,4.0,56,0.00,,---,0.00,VWS V13.01,2013-01-03 07:00:00,
2013-01-03 00:06:00,30.2,16.4,30.11,West,270,3.1,3.1,56,0.00,,---,0.00,VWS V13.01,2013-01-03 07:06:00,
2013-01-03 00:11:00,30.7,16.5,30.11,West,274,3.6,5.8,55,0.00,,---,0.00,VWS V13.01,2013-01-03 07:11:00,
2013-01-03 00:16:00,31.3,17.0,30.11,WNW,287,3.1,5.8,55,0.00,,---,0.00,VWS V13.01,2013-01-03 07:16:00,
2013-01-03 00:21:00,31.1,16.8,30.11,WNW,290,5.4,5.8,55,0.00,,---,0.00,VWS V13.01,2013-01-03 07:21:00,
2013-01-03 00:26:00,31.5,17.2,30.11,WNW,285,3.6,5.8,55,0.00,,---,0.00,VWS V13.01,2013-01-03 07:26:00,
2013-01-03 00:31:00,31.1,17.2,30.11,WNW,282,3.6,5.8,56,0.00,,---,0.00,VWS V13.01,2013-01-03 07:31:00,
2013-01-03 00:36:00,31.1,17.2,30.11,West,277,2.7,5.8,56,0.00,,---,0.00,VWS V13.01,2013-01-03 07:36:00,
2013-01-03 00:41:00,30.9,17.1,30.11,West,265,3.1,5.8,56,0.00,,---,0.00,VWS V13.01,2013-01-03 07:41:00,
2013-01-03 00:47:00,30.9,17.1,30.08,West,271,3.6,5.8,56,0.00,,---,0.00,VWS V13.01,2013-01-03 07:47:00,
2013-01-03 00:52:00,31.3,17.0,30.08,West,268,2.7,5.8,55,0.00,,---,0.00,VWS V13.01,2013-01-03 07:52:00,
2013-01-03 00:57:00,30.7,17.3,30.08,West,265,3.6,5.8,57,0.00,,---,0.00,VWS V13.01,2013-01-03 07:57:00,
2013-01-03 01:02:00,30.7,16.9,30.08,West,265,3.1,4.0,56,0.00,,---,0.00,VWS V13.01,2013-01-03 08:02:00,
2013-01-03 01:07:00,30.9,17.1,30.08,West,278,2.7,4.0,56,0.00,,---,0.00,VWS V13.01,2013-01-03 08:07:00,
2013-01-03 01:13:00,30.9,16.7,30.08,West,275,0.0,4.0,55,0.00,,---,0.00,VWS V13.01,2013-01-03 08:13:00,
2013-01-03 01:18:00,30.7,16.5,30.08,West,275,0.0,4.0,55,0.00,,---,0.00,VWS V13.01,2013-01-03 08:18:00,
2013-01-03 01:23:00,30.7,16.5,30.08,WNW,282,0.0,4.0,55,0.00,,---,0.00,VWS V13.01,2013-01-03 08:23:00,
2013-01-03 01:28:00,30.7,16.5,30.08,WNW,303,4.0,4.0,55,0.00,,---,0.00,VWS V13.01,2013-01-03 08:28:00,
2013-01-03 01:33:00,30.9,16.7,30.08,WNW,303,5.8,6.3,55,0.00,,---,0.00,VWS V13.01,2013-01-03 08:33:00,
2013-01-03 01:38:00,30.9,17.1,30.08,WNW,303,4.0,7.2,56,0.00,,---,0.00,VWS V13.01,2013-01-03 08:38:00,
2013-01-03 01:44:00,30.9,17.1,30.08,WNW,303,5.4,7.2,56,0.00,,---,0.00,VWS V13.01,2013-01-03 08:44:00,
2013-01-03 01:49:00,30.7,16.9,30.08,WNW,291,4.0,7.2,56,0.00,,---,0.00,VWS V13.01,2013-01-03 08:49:00,
2013-01-03 01:54:00,30.7,16.9,30.08,WNW,303,3.6,7.2,56,0.00,,---,0.00,VWS V13.01,2013-01-03 08:54:00,
2013-01-03 01:59:00,30.7,16.9,30.11,NW,307,5.8,7.2,56,0.00,,---,0.00,VWS V13.01,2013-01-03 08:59:00,
2013-01-03 02:04:00,30.7,16.5,30.11,WNW,300,3.6,6.3,55,0.00,,---,0.00,VWS V13.01,2013-01-03 09:04:00,
2013-01-03 02:10:00,30.6,16.3,30.11,WNW,303,5.4,6.3,55,0.00,,---,0.00,VWS V13.01,2013-01-03 09:10:00,
2013-01-03 02:15:00,30.7,16.9,30.11,NW,307,4.9,6.3,56,0.00,,---,0.00,VWS V13.01,2013-01-03 09:15:00,
2013-01-03 02:20:00,30.4,16.6,30.11,WNW,303,4.9,6.3,56,0.00,,---,0.00,VWS V13.01,2013-01-03 09:20:00,
2013-01-03 02:25:00,30.4,16.6,30.11,NW,318,5.4,6.3,56,0.00,,---,0.00,VWS V13.01,2013-01-03 09:25:00,
2013-01-03 02:30:00,30.6,16.3,30.11,NNW,327,5.4,6.3,55,0.00,,---,0.00,VWS V13.01,2013-01-03 09:30:00,
2013-01-03 02:35:00,30.7,16.1,30.11,NW,311,5.8,6.3,54,0.00,,---,0.00,VWS V13.01,2013-01-03 09:35:00,
2013-01-03 02:41:00,30.9,16.2,30.11,WNW,303,4.5,7.6,54,0.00,,---,0.00,VWS V13.01,2013-01-03 09:41:00,
2013-01-03 02:46:00,30.9,15.8,30.11,WNW,303,4.0,7.6,53,0.00,,---,0.00,VWS V13.01,2013-01-03 09:46:00,
2013-01-03 02:51:00,30.6,15.5,30.11,WNW,299,4.0,7.6,53,0.00,,---,0.00,VWS V13.01,2013-01-03 09:51:00,
2013-01-03 02:56:00,30.7,15.6,30.11,NW,306,5.4,7.6,53,0.00,,---,0.00,VWS V13.01,2013-01-03 09:56:00,
2013-01-03 03:01:00,30.6,15.5,30.11,NW,304,3.6,6.3,53,0.00,,---,0.00,VWS V13.01,2013-01-03 10:01:00,
2013-01-03 03:06:00,30.6,15.0,30.11,WNW,297,4.0,6.3,52,0.00,,---,0.00,VWS V13.01,2013-01-03 10:06:00,
2013-01-03 03:12:00,30.7,15.2,30.11,WNW,299,4.0,7.6,52,0.00,,---,0.00,VWS V13.01,2013-01-03 10:12:00,
2013-01-03 03:17:00,30.6,15.0,30.11,WNW,288,4.9,8.1,52,0.00,,---,0.00,VWS V13.01,2013-01-03 10:17:00,
2013-01-03 03:22:00,30.7,14.8,30.11,WNW,293,5.8,8.1,51,0.00,,---,0.00,VWS V13.01,2013-01-03 10:22:00,
2013-01-03 03:27:00,30.9,14.9,30.11,West,278,2.7,8.1,51,0.00,,---,0.00,VWS V13.01,2013-01-03 10:27:00,
2013-01-03 03:32:00,30.7,14.8,30.11,WNW,289,3.1,8.1,51,0.00,,---,0.00,VWS V13.01,2013-01-03 10:32:00,
2013-01-03 03:37:00,30.7,14.8,30.11,WNW,292,3.6,8.1,51,0.00,,---,0.00,VWS V13.01,2013-01-03 10:37:00,
2013-01-03 03:43:00,30.6,14.6,30.11,WNW,297,4.0,8.1,51,0.00,,---,0.00,VWS V13.01,2013-01-03 10:43:00,
2013-01-03 03:48:00,30.7,14.3,30.11,WNW,286,5.4,8.1,50,0.00,,---,0.00,VWS V13.01,2013-01-03 10:48:00,
2013-01-03 03:53:00,30.9,14.5,30.11,WNW,283,4.0,8.1,50,0.00,,---,0.00,VWS V13.01,2013-01-03 10:53:00,
2013-01-03 03:58:00,30.7,14.3,30.11,West,273,2.7,8.1,50,0.00,,---,0.00,VWS V13.01,2013-01-03 10:58:00,
2013-01-03 04:03:00,30.6,14.1,30.08,WNW,290,3.6,4.0,50,0.00,,---,0.00,VWS V13.01,2013-01-03 11:03:00,
2013-01-03 04:08:00,30.4,14.0,30.08,WNW,286,4.0,4.0,50,0.00,,---,0.00,VWS V13.01,2013-01-03 11:08:00,
2013-01-03 04:14:00,30.4,14.4,30.11,WNW,299,3.6,4.9,51,0.00,,---,0.00,VWS V13.01,2013-01-03 11:14:00,
2013-01-03 04:19:00,30.4,14.4,30.11,WNW,291,2.7,4.9,51,0.00,,---,0.00,VWS V13.01,2013-01-03 11:19:00,
2013-01-03 04:24:00,30.2,14.3,30.11,WNW,291,0.0,4.9,51,0.00,,---,0.00,VWS V13.01,2013-01-03 11:24:00,
2013-01-03 04:29:00,30.2,14.3,30.08,WNW,301,3.6,4.9,51,0.00,,---,0.00,VWS V13.01,2013-01-03 11:29:00,
2013-01-03 04:35:00,30.2,14.3,30.08,WNW,299,2.7,5.4,51,0.00,,---,0.00,VWS V13.01,2013-01-03 11:35:00,
2013-01-03 04:40:00,30.2,14.3,30.08,WNW,286,3.1,5.4,51,0.00,,---,0.00,VWS V13.01,2013-01-03 11:40:00,
2013-01-03 04:45:00,30.0,14.1,30.11,NW,319,2.7,5.4,51,0.00,,---,0.00,VWS V13.01,2013-01-03 11:45:00,
2013-01-03 04:50:00,29.8,13.5,30.11,NW,310,3.6,5.4,50,0.00,,---,0.00,VWS V13.01,2013-01-03 11:50:00,
2013-01-03 04:55:00,29.5,13.1,30.11,NW,311,2.2,5.4,50,0.00,,---,0.00,VWS V13.01,2013-01-03 11:55:00,
2013-01-03 05:00:00,29.5,13.1,30.11,NW,311,0.0,0.0,50,0.00,,---,0.00,VWS V13.01,2013-01-03 12:00:00,
2013-01-03 05:05:00,29.3,13.0,30.11,NW,315,0.0,0.0,50,0.00,,---,0.00,VWS V13.01,2013-01-03 12:05:00,
2013-01-03 05:11:00,29.1,12.8,30.11,NW,314,0.0,0.0,50,0.00,,---,0.00,VWS V13.01,2013-01-03 12:11:00,
2013-01-03 05:16:00,28.9,12.6,30.11,WNW,285,0.0,0.0,50,0.00,,---,0.00,VWS V13.01,2013-01-03 12:16:00,
2013-01-03 05:21:00,28.6,12.3,30.11,West,280,3.1,3.1,50,0.00,,---,0.00,VWS V13.01,2013-01-03 12:21:00,
2013-01-03 05:26:00,28.2,12.4,30.11,West,267,5.8,6.3,51,0.00,,---,0.00,VWS V13.01,2013-01-03 12:26:00,
2013-01-03 05:31:00,28.4,12.6,30.11,West,266,3.1,6.3,51,0.00,,---,0.00,VWS V13.01,2013-01-03 12:31:00,
2013-01-03 05:36:00,28.2,12.4,30.11,West,275,3.6,6.3,51,0.00,,---,0.00,VWS V13.01,2013-01-03 12:36:00,
2013-01-03 05:41:00,28.6,12.8,30.11,West,272,2.7,6.3,51,0.00,,---,0.00,VWS V13.01,2013-01-03 12:41:00,
2013-01-03 05:46:00,28.4,12.6,30.11,West,265,3.6,6.3,51,0.00,,---,0.00,VWS V13.01,2013-01-03 12:46:00,
2013-01-03 05:51:00,28.0,12.3,30.11,West,270,3.1,6.3,51,0.00,,---,0.00,VWS V13.01,2013-01-03 12:51:00,
2013-01-03 05:57:00,28.0,12.3,30.11,West,266,4.0,6.3,51,0.00,,---,0.00,VWS V13.01,2013-01-03 12:57:00,
2013-01-03 06:02:00,27.9,12.1,30.11,West,265,3.6,4.0,51,0.00,,---,0.00,VWS V13.01,2013-01-03 13:02:00,
2013-01-03 06:07:00,27.9,12.1,30.11,West,272,4.0,5.4,51,0.00,,---,0.00,VWS V13.01,2013-01-03 13:07:00,
2013-01-03 06:12:00,27.9,12.1,30.11,WNW,283,3.6,5.4,51,0.00,,---,0.00,VWS V13.01,2013-01-03 13:12:00,
2013-01-03 06:17:00,28.4,12.6,30.11,WNW,294,3.6,5.4,51,0.00,,---,0.00,VWS V13.01,2013-01-03 13:17:00,
2013-01-03 06:22:00,28.2,12.4,30.11,West,279,4.0,5.8,51,0.00,,---,0.00,VWS V13.01,2013-01-03 13:22:00,
2013-01-03 06:27:00,27.9,12.1,30.11,West,277,2.7,5.8,51,0.00,,---,0.00,VWS V13.01,2013-01-03 13:27:00,
2013-01-03 06:32:00,28.0,12.3,30.11,West,272,3.1,5.8,51,0.00,,---,0.00,VWS V13.01,2013-01-03 13:32:00,
2013-01-03 06:37:00,28.0,12.3,30.11,West,267,4.0,5.8,51,0.00,,---,0.00,VWS V13.01,2013-01-03 13:37:00,
2013-01-03 06:42:00,28.0,12.3,30.11,West,265,3.6,5.8,51,0.00,,---,0.00,VWS V13.01,2013-01-03 13:42:00,
2013-01-03 06:48:00,27.7,12.4,30.11,West,265,3.6,5.8,52,0.00,,---,0.00,VWS V13.01,2013-01-03 13:48:00,
2013-01-03 06:53:00,27.3,12.5,30.11,West,265,3.6,5.8,53,0.00,,---,0.00,VWS V13.01,2013-01-03 13:53:00,
2013-01-03 06:58:00,27.5,12.6,30.11,West,276,3.6,5.8,53,0.00,,---,0.00,VWS V13.01,2013-01-03 13:58:00,
2013-01-03 07:03:00,27.7,12.4,30.11,West,273,0.0,4.0,52,0.00,,---,0.00,VWS V13.01,2013-01-03 14:03:00,
2013-01-03 07:08:00,27.7,12.4,30.11,West,266,2.2,4.0,52,0.00,,---,0.00,VWS V13.01,2013-01-03 14:08:00,
2013-01-03 07:13:00,27.1,11.9,30.11,West,266,0.0,4.0,52,0.00,,---,0.00,VWS V13.01,2013-01-03 14:13:00,
2013-01-03 07:18:00,27.1,11.9,30.11,West,266,0.0,4.0,52,0.00,,---,0.00,VWS V13.01,2013-01-03 14:18:00,
2013-01-03 07:23:00,27.3,12.0,30.11,West,266,0.0,4.0,52,0.00,,---,0.00,VWS V13.01,2013-01-03 14:23:00,
2013-01-03 07:29:00,27.5,11.8,30.11,West,266,0.0,4.0,51,0.00,,---,0.00,VWS V13.01,2013-01-03 14:29:00,
2013-01-03 07:34:00,27.7,11.9,30.11,West,266,0.0,4.0,51,0.00,,---,0.00,VWS V13.01,2013-01-03 14:34:00,
2013-01-03 07:39:00,28.0,12.3,30.11,West,278,3.6,4.9,51,0.00,,---,0.00,VWS V13.01,2013-01-03 14:39:00,
2013-01-03 07:44:00,28.6,12.8,30.14,WNW,302,4.9,5.4,51,0.00,,---,0.00,VWS V13.01,2013-01-03 14:44:00,
2013-01-03 07:49:00,28.9,13.1,30.14,WNW,286,5.4,5.8,51,0.00,,---,0.00,VWS V13.01,2013-01-03 14:49:00,
2013-01-03 07:54:00,29.7,13.8,30.14,WNW,289,6.3,6.3,51,0.00,,---,0.00,VWS V13.01,2013-01-03 14:54:00,
2013-01-03 08:00:00,30.2,14.3,30.14,West,278,4.0,4.0,51,0.00,,---,0.00,VWS V13.01,2013-01-03 15:00:00,
2013-01-03 08:05:00,30.7,14.3,30.14,NW,307,5.4,6.3,50,0.00,,---,0.00,VWS V13.01,2013-01-03 15:05:00,
2013-01-03 08:10:00,31.1,14.6,30.14,WNW,291,6.3,8.1,50,0.00,,---,0.00,VWS V13.01,2013-01-03 15:10:00,
2013-01-03 08:15:00,31.8,15.3,30.14,WNW,298,5.8,8.3,50,0.00,,---,0.00,VWS V13.01,2013-01-03 15:15:00,
2013-01-03 08:20:00,32.4,15.4,30.14,NW,324,5.8,8.3,49,0.00,,---,0.00,VWS V13.01,2013-01-03 15:20:00,
2013-01-03 08:25:00,32.7,15.7,30.14,WNW,285,6.3,10.5,49,0.00,,---,0.00,VWS V13.01,2013-01-03 15:25:00,
2013-01-03 08:30:00,33.1,16.0,30.14,NW,305,8.3,10.5,49,0.00,,---,0.00,VWS V13.01,2013-01-03 15:30:00,
2013-01-03 08:35:00,33.4,16.4,30.14,NW,310,7.6,10.5,49,0.00,,---,0.00,VWS V13.01,2013-01-03 15:35:00,
2013-01-03 08:40:00,33.8,15.7,30.14,NW,305,5.4,10.5,47,0.00,,---,0.00,VWS V13.01,2013-01-03 15:40:00,
2013-01-03 08:46:00,34.0,15.9,30.14,NNW,334,6.3,10.5,47,0.00,,---,0.00,VWS V13.01,2013-01-03 15:46:00,
2013-01-03 08:51:00,34.3,16.2,30.14,NW,323,6.3,10.5,47,0.00,,---,0.00,VWS V13.01,2013-01-03 15:51:00,
2013-01-03 08:56:00,34.7,16.5,30.14,NNW,334,5.8,10.5,47,0.00,,---,0.00,VWS V13.01,2013-01-03 15:56:00,
2013-01-03 09:01:00,34.9,16.2,30.17,WNW,297,7.2,8.1,46,0.00,,---,0.00,VWS V13.01,2013-01-03 16:01:00,
2013-01-03 09:06:00,35.6,16.9,30.17,NW,326,5.8,8.3,46,0.00,,---,0.00,VWS V13.01,2013-01-03 16:06:00,
2013-01-03 09:11:00,36.1,17.4,30.17,NW,316,7.6,8.3,46,0.00,,---,0.00,VWS V13.01,2013-01-03 16:11:00,
2013-01-03 09:16:00,36.7,17.9,30.17,NNW,330,5.8,8.3,46,0.00,,---,0.00,VWS V13.01,2013-01-03 16:16:00,
2013-01-03 09:21:00,36.7,17.4,30.17,NW,320,5.4,8.7,45,0.00,,---,0.00,VWS V13.01,2013-01-03 16:21:00,
2013-01-03 09:26:00,36.3,17.0,30.17,WNW,301,5.4,8.7,45,0.00,,---,0.00,VWS V13.01,2013-01-03 16:26:00,
2013-01-03 09:32:00,36.7,17.4,30.17,NNW,327,8.1,8.7,45,0.00,,---,0.00,VWS V13.01,2013-01-03 16:32:00,
2013-01-03 09:37:00,36.9,17.5,30.17,North,353,2.7,8.7,45,0.00,,---,0.00,VWS V13.01,2013-01-03 16:37:00,
2013-01-03 09:42:00,36.9,17.5,30.17,NE,38,0.0,8.7,45,0.00,,---,0.00,VWS V13.01,2013-01-03 16:42:00,
2013-01-03 09:47:00,36.9,17.5,30.17,North,0,0.0,8.7,45,0.00,,---,0.00,VWS V13.01,2013-01-03 16:47:00,
2013-01-03 09:52:00,37.0,17.7,30.17,North,10,0.0,8.7,45,0.00,,---,0.00,VWS V13.01,2013-01-03 16:52:00,
2013-01-03 09:57:00,37.0,17.7,30.17,North,357,0.0,8.7,45,0.00,,---,0.00,VWS V13.01,2013-01-03 16:57:00,
2013-01-03 10:02:00,36.9,17.0,30.17,NNW,332,0.0,4.0,44,0.00,,---,0.00,VWS V13.01,2013-01-03 17:02:00,
2013-01-03 10:07:00,37.0,17.7,30.17,NW,323,0.0,4.0,45,0.00,,---,0.00,VWS V13.01,2013-01-03 17:07:00,
2013-01-03 10:12:00,37.4,17.5,30.17,North,350,0.0,4.0,44,0.00,,---,0.00,VWS V13.01,2013-01-03 17:12:00,
2013-01-03 10:18:00,37.6,18.2,30.17,NNE,14,0.0,4.0,45,0.00,,---,0.00,VWS V13.01,2013-01-03 17:18:00,
2013-01-03 10:23:00,38.5,19.0,30.17,WNW,284,0.0,4.0,45,0.00,,---,0.00,VWS V13.01,2013-01-03 17:23:00,
2013-01-03 10:28:00,38.3,18.8,30.17,WNW,283,0.0,4.0,45,0.00,,---,0.00,VWS V13.01,2013-01-03 17:28:00,
2013-01-03 10:33:00,38.3,18.8,30.17,WNW,283,0.0,4.0,45,0.00,,---,0.00,VWS V13.01,2013-01-03 17:33:00,
2013-01-03 10:38:00,39.0,19.5,30.17,South,177,0.0,4.0,45,0.00,,---,0.00,VWS V13.01,2013-01-03 17:38:00,
2013-01-03 10:43:00,39.4,19.8,30.17,SSE,160,2.7,5.8,45,0.00,,---,0.00,VWS V13.01,2013-01-03 17:43:00,
2013-01-03 10:49:00,40.1,20.5,30.17,East,94,3.6,5.8,45,0.00,,---,0.00,VWS V13.01,2013-01-03 17:49:00,
2013-01-03 10:54:00,40.6,21.0,30.17,SE,141,3.1,5.8,45,0.00,,---,0.00,VWS V13.01,2013-01-03 17:54:00,
2013-01-03 10:59:00,40.6,20.5,30.17,East,99,6.3,7.6,44,0.00,,---,0.00,VWS V13.01,2013-01-03 17:59:00,
2013-01-03 11:04:00,41.2,20.9,30.17,SE,129,3.6,5.4,44,0.00,,---,0.00,VWS V13.01,2013-01-03 18:04:00,
2013-01-03 11:09:00,41.4,21.1,30.17,East,99,4.0,5.8,44,0.00,,---,0.00,VWS V13.01,2013-01-03 18:09:00,
2013-01-03 11:14:00,42.1,21.8,30.17,ENE,70,3.1,5.8,44,0.00,,---,0.00,VWS V13.01,2013-01-03 18:14:00,
2013-01-03 11:19:00,42.8,22.4,30.17,ESE,104,6.3,6.3,44,0.00,,---,0.00,VWS V13.01,2013-01-03 18:19:00,
2013-01-03 11:24:00,43.3,22.4,30.17,ESE,109,4.9,6.3,43,0.00,,---,0.00,VWS V13.01,2013-01-03 18:24:00,
2013-01-03 11:29:00,43.5,22.5,30.17,East,100,4.0,6.3,43,0.00,,---,0.00,VWS V13.01,2013-01-03 18:29:00,
2013-01-03 11:34:00,44.4,23.3,30.17,East,90,5.4,7.6,43,0.00,,---,0.00,VWS V13.01,2013-01-03 18:34:00,
2013-01-03 11:39:00,44.6,22.9,30.17,ESE,121,5.8,7.6,42,0.00,,---,0.00,VWS V13.01,2013-01-03 18:39:00,
2013-01-03 11:45:00,44.8,23.1,30.17,ESE,102,2.7,7.6,42,0.00,,---,0.00,VWS V13.01,2013-01-03 18:45:00,
2013-01-03 11:50:00,44.8,23.1,30.17,ESE,104,5.8,7.6,42,0.00,,---,0.00,VWS V13.01,2013-01-03 18:50:00,
2013-01-03 11:55:00,44.6,22.9,30.17,NNE,21,6.7,8.1,42,0.00,,---,0.00,VWS V13.01,2013-01-03 18:55:00,
2013-01-03 12:00:00,44.6,21.8,30.14,North,357,6.3,8.1,40,0.00,,---,0.00,VWS V13.01,2013-01-03 19:00:00,
2013-01-03 12:05:00,44.8,22.0,30.14,NNW,333,3.1,3.1,40,0.00,,---,0.00,VWS V13.01,2013-01-03 19:05:00,
2013-01-03 12:10:00,44.8,22.0,30.14,NW,315,5.4,7.6,40,0.00,,---,0.00,VWS V13.01,2013-01-03 19:10:00,
2013-01-03 12:16:00,44.8,21.4,30.14,NNW,327,4.0,9.6,39,0.00,,---,0.00,VWS V13.01,2013-01-03 19:16:00,
2013-01-03 12:56:00,45.7,22.8,30.14,SSW,197,2.7,9.6,40,0.00,,---,0.00,VWS V13.01,2013-01-03 19:56:00,
2013-01-03 13:01:00,46.0,23.1,30.14,ESE,104,3.1,3.1,40,0.00,,---,0.00,VWS V13.01,2013-01-03 20:01:00,
2013-01-03 13:06:00,46.9,23.9,30.14,SE,128,4.5,6.3,40,0.00,,---,0.00,VWS V13.01,2013-01-03 20:06:00,
2013-01-03 13:11:00,46.8,23.1,30.14,East,84,3.6,6.3,39,0.00,,---,0.00,VWS V13.01,2013-01-03 20:11:00,
2013-01-03 13:17:00,47.1,24.1,30.14,East,90,3.1,6.3,40,0.00,,---,0.00,VWS V13.01,2013-01-03 20:17:00,
2013-01-03 13:22:00,47.1,24.1,30.14,SSE,153,4.9,6.3,40,0.00,,---,0.00,VWS V13.01,2013-01-03 20:22:00,
2013-01-03 13:27:00,47.3,23.6,30.14,South,188,0.0,6.3,39,0.00,,---,0.00,VWS V13.01,2013-01-03 20:27:00,
2013-01-03 13:32:00,47.7,23.9,30.11,SSW,207,4.0,6.3,39,0.00,,---,0.00,VWS V13.01,2013-01-03 20:32:00,
2013-01-03 13:37:00,47.7,23.9,30.11,East,91,5.4,6.3,39,0.00,,---,0.00,VWS V13.01,2013-01-03 20:37:00,
2013-01-03 13:42:00,48.4,24.6,30.11,ESE,116,5.4,6.3,39,0.00,,---,0.00,VWS V13.01,2013-01-03 20:42:00,
2013-01-03 13:47:00,48.0,24.9,30.11,ESE,120,0.0,6.3,40,0.00,,---,0.00,VWS V13.01,2013-01-03 20:47:00,
2013-01-03 13:52:00,48.7,24.9,30.11,SE,126,0.0,6.7,39,0.00,,---,0.00,VWS V13.01,2013-01-03 20:52:00,
2013-01-03 13:58:00,47.8,24.1,30.11,South,179,0.0,6.7,39,0.00,,---,0.00,VWS V13.01,2013-01-03 20:58:00,
2013-01-03 14:03:00,48.4,24.6,30.11,East,83,3.6,4.0,39,0.00,,---,0.00,VWS V13.01,2013-01-03 21:03:00,
2013-01-03 14:08:00,47.7,23.3,30.11,NE,56,2.2,4.9,38,0.00,,---,0.00,VWS V13.01,2013-01-03 21:08:00,
2013-01-03 14:13:00,48.2,24.4,30.11,East,82,3.1,5.4,39,0.00,,---,0.00,VWS V13.01,2013-01-03 21:13:00,
2013-01-03 14:18:00,49.1,25.2,30.11,NNE,12,0.0,5.4,39,0.00,,---,0.00,VWS V13.01,2013-01-03 21:18:00,
2013-01-03 14:23:00,49.6,25.7,30.11,ESE,115,8.7,12.8,39,0.00,,---,0.00,VWS V13.01,2013-01-03 21:23:00,
2013-01-03 14:28:00,50.0,26.0,30.11,ESE,109,5.8,12.8,39,0.00,,---,0.00,VWS V13.01,2013-01-03 21:28:00,
2013-01-03 14:33:00,50.5,26.5,30.11,East,98,4.0,12.8,39,0.00,,---,0.00,VWS V13.01,2013-01-03 21:33:00,
2013-01-03 14:39:00,51.1,27.0,30.11,ESE,108,4.9,12.8,39,0.00,,---,0.00,VWS V13.01,2013-01-03 21:39:00,
2013-01-03 14:45:00,51.3,26.5,30.11,ESE,108,4.9,12.8,38,0.00,,---,0.00,VWS V13.01,2013-01-03 21:45:00,
2013-01-03 14:50:00,51.4,27.3,30.11,ENE,70,2.2,12.8,39,0.00,,---,0.00,VWS V13.01,2013-01-03 21:50:00,
2013-01-03 14:55:00,51.6,27.5,30.11,East,97,2.7,12.8,39,0.00,,---,0.00,VWS V13.01,2013-01-03 21:55:00,
2013-01-03 15:00:00,51.8,27.0,30.14,ESE,123,8.1,10.1,38,0.00,,---,0.00,VWS V13.01,2013-01-03 22:00:00,
2013-01-03 15:05:00,51.8,27.0,30.14,ESE,111,8.1,10.1,38,0.00,,---,0.00,VWS V13.01,2013-01-03 22:05:00,
2013-01-03 15:10:00,51.8,27.0,30.14,ENE,65,3.1,10.1,38,0.00,,---,0.00,VWS V13.01,2013-01-03 22:10:00,
2013-01-03 15:15:00,51.6,27.5,30.14,ESE,108,5.4,10.1,39,0.00,,---,0.00,VWS V13.01,2013-01-03 22:15:00,
2013-01-03 15:20:00,51.6,27.5,30.14,SE,132,5.4,10.1,39,0.00,,---,0.00,VWS V13.01,2013-01-03 22:20:00,
2013-01-03 15:25:00,51.4,27.3,30.14,SSE,158,5.4,10.1,39,0.00,,---,0.00,VWS V13.01,2013-01-03 22:25:00,
2013-01-03 15:30:00,51.6,27.5,30.14,East,85,4.0,10.1,39,0.00,,---,0.00,VWS V13.01,2013-01-03 22:30:00,
2013-01-03 15:35:00,50.5,26.5,30.14,NE,44,4.9,10.1,39,0.00,,---,0.00,VWS V13.01,2013-01-03 22:35:00,
2013-01-03 15:40:00,50.4,26.4,30.14,East,95,4.0,10.1,39,0.00,,---,0.00,VWS V13.01,2013-01-03 22:40:00,
2013-01-03 15:45:00,50.7,26.7,30.14,ESE,119,3.1,10.1,39,0.00,,---,0.00,VWS V13.01,2013-01-03 22:45:00,
2013-01-03 15:51:00,50.5,26.5,30.14,East,101,3.6,10.1,39,0.00,,---,0.00,VWS V13.01,2013-01-03 22:51:00,
2013-01-03 15:56:00,51.1,27.0,30.14,East,84,7.6,10.1,39,0.00,,---,0.00,VWS V13.01,2013-01-03 22:56:00,
2013-01-03 16:01:00,50.5,26.5,30.14,East,90,4.0,4.9,39,0.00,,---,0.00,VWS V13.01,2013-01-03 23:01:00,
2013-01-03 16:06:00,50.2,26.2,30.14,East,90,3.6,5.8,39,0.00,,---,0.00,VWS V13.01,2013-01-03 23:06:00,
2013-01-03 16:11:00,50.2,26.2,30.14,East,97,5.8,5.8,39,0.00,,---,0.00,VWS V13.01,2013-01-03 23:11:00,
2013-01-03 16:16:00,49.3,25.4,30.14,ENE,76,5.4,7.6,39,0.00,,---,0.00,VWS V13.01,2013-01-03 23:16:00,
2013-01-03 16:21:00,48.4,25.2,30.14,East,83,5.8,7.6,40,0.00,,---,0.00,VWS V13.01,2013-01-03 23:21:00,
2013-01-03 16:26:00,47.7,24.5,30.14,East,97,3.1,7.6,40,0.00,,---,0.00,VWS V13.01,2013-01-03 23:26:00,
2013-01-03 16:31:00,47.5,25.0,30.14,ENE,77,4.9,7.6,41,0.00,,---,0.00,VWS V13.01,2013-01-03 23:31:00,
2013-01-03 16:37:00,47.3,24.8,30.14,ESE,119,4.0,7.6,41,0.00,,---,0.00,VWS V13.01,2013-01-03 23:37:00,
2013-01-03 16:42:00,47.1,24.6,30.14,East,96,4.0,7.6,41,0.00,,---,0.00,VWS V13.01,2013-01-03 23:42:00,
2013-01-03 16:47:00,46.4,24.6,30.14,East,96,6.3,7.6,42,0.00,,---,0.00,VWS V13.01,2013-01-03 23:47:00,
2013-01-03 16:52:00,46.4,24.6,30.14,East,82,5.8,7.6,42,0.00,,---,0.00,VWS V13.01,2013-01-03 23:52:00,
2013-01-03 16:57:00,46.2,25.0,30.14,ESE,108,5.8,7.6,43,0.00,,---,0.00,VWS V13.01,2013-01-03 23:57:00,
2013-01-03 17:02:00,45.5,24.3,30.17,ENE,78,5.8,7.6,43,0.00,,---,0.00,VWS V13.01,2013-01-04 00:02:00,
2013-01-03 17:07:00,44.8,23.7,30.17,East,86,5.4,8.3,43,0.00,,---,0.00,VWS V13.01,2013-01-04 00:07:00,
2013-01-03 17:12:00,44.4,23.9,30.17,East,82,3.6,8.3,44,0.00,,---,0.00,VWS V13.01,2013-01-04 00:12:00,
2013-01-03 17:17:00,44.1,24.1,30.17,ENE,72,3.1,8.3,45,0.00,,---,0.00,VWS V13.01,2013-01-04 00:17:00,
2013-01-03 17:22:00,43.2,23.8,30.17,ENE,74,3.6,8.3,46,0.00,,---,0.00,VWS V13.01,2013-01-04 00:22:00,
2013-01-03 17:27:00,42.6,23.3,30.17,East,83,0.0,8.3,46,0.00,,---,0.00,VWS V13.01,2013-01-04 00:27:00,
2013-01-03 17:33:00,41.7,23.5,30.17,ENE,73,3.6,8.3,48,0.00,,---,0.00,VWS V13.01,2013-01-04 00:33:00,
2013-01-03 17:38:00,41.4,23.2,30.17,NE,52,2.2,8.3,48,0.00,,---,0.00,VWS V13.01,2013-01-04 00:38:00,
2013-01-03 17:43:00,41.0,22.3,30.17,NE,50,0.0,8.3,47,0.00,,---,0.00,VWS V13.01,2013-01-04 00:43:00,
2013-01-03 17:48:00,40.6,23.0,30.20,East,85,3.1,8.3,49,0.00,,---,0.00,VWS V13.01,2013-01-04 00:48:00,
2013-01-03 17:53:00,40.1,22.5,30.20,ENE,74,0.0,8.3,49,0.00,,---,0.00,VWS V13.01,2013-01-04 00:53:00,
2013-01-03 17:58:00,39.9,22.3,30.20,East,100,0.0,8.3,49,0.00,,---,0.00,VWS V13.01,2013-01-04 00:58:00,
2013-01-03 18:03:00,39.7,22.2,30.20,East,100,0.0,0.0,49,0.00,,---,0.00,VWS V13.01,2013-01-04 01:03:00,
2013-01-03 18:08:00,39.4,22.3,30.20,East,100,0.0,0.0,50,0.00,,---,0.00,VWS V13.01,2013-01-04 01:08:00,
2013-01-03 18:13:00,38.8,22.3,30.20,East,99,2.7,4.0,51,0.00,,---,0.00,VWS V13.01,2013-01-04 01:13:00,
2013-01-03 18:18:00,38.1,22.1,30.20,NNE,21,2.7,4.0,52,0.00,,---,0.00,VWS V13.01,2013-01-04 01:18:00,
2013-01-03 18:24:00,38.1,21.6,30.20,ENE,65,0.0,4.0,51,0.00,,---,0.00,VWS V13.01,2013-01-04 01:24:00,
2013-01-03 18:29:00,37.8,21.7,30.20,East,96,0.0,6.3,52,0.00,,---,0.00,VWS V13.01,2013-01-04 01:29:00,
2013-01-03 18:34:00,37.6,21.6,30.20,ESE,102,0.0,6.3,52,0.00,,---,0.00,VWS V13.01,2013-01-04 01:34:00,
2013-01-03 18:39:00,37.2,21.7,30.20,East,99,0.0,6.3,53,0.00,,---,0.00,VWS V13.01,2013-01-04 01:39:00,
2013-01-03 18:44:00,37.0,22.0,30.20,ESE,113,3.6,7.2,54,0.00,,---,0.00,VWS V13.01,2013-01-04 01:44:00,
2013-01-03 18:49:00,36.7,22.5,30.20,SSE,160,5.4,7.2,56,0.00,,---,0.00,VWS V13.01,2013-01-04 01:49:00,
2013-01-03 18:54:00,36.5,21.9,30.20,East,100,3.1,7.2,55,0.00,,---,0.00,VWS V13.01,2013-01-04 01:54:00,
2013-01-03 18:59:00,36.3,22.1,30.20,SSE,162,0.0,7.2,56,0.00,,---,0.00,VWS V13.01,2013-01-04 01:59:00,
2013-01-03 19:04:00,36.1,22.0,30.20,SE,129,0.0,3.1,56,0.00,,---,0.00,VWS V13.01,2013-01-04 02:04:00,
2013-01-03 19:10:00,36.0,22.6,30.20,SE,127,3.6,5.8,58,0.00,,---,0.00,VWS V13.01,2013-01-04 02:10:00,
2013-01-03 19:15:00,36.0,21.4,30.20,SE,144,5.8,5.8,55,0.00,,---,0.00,VWS V13.01,2013-01-04 02:15:00,
2013-01-03 19:20:00,36.0,21.8,30.20,SE,131,2.7,5.8,56,0.00,,---,0.00,VWS V13.01,2013-01-04 02:20:00,
2013-01-03 19:25:00,35.6,21.5,30.20,ESE,110,0.0,5.8,56,0.00,,---,0.00,VWS V13.01,2013-01-04 02:25:00,
2013-01-03 19:30:00,35.8,21.6,30.20,East,94,0.0,5.8,56,0.00,,---,0.00,VWS V13.01,2013-01-04 02:30:00,
2013-01-03 19:35:00,35.6,21.5,30.20,East,81,0.0,5.8,56,0.00,,---,0.00,VWS V13.01,2013-01-04 02:35:00,
2013-01-03 19:41:00,35.6,21.5,30.20,East,84,0.0,5.8,56,0.00,,---,0.00,VWS V13.01,2013-01-04 02:41:00,
2013-01-03 19:46:00,35.4,21.7,30.20,East,82,0.0,5.8,57,0.00,,---,0.00,VWS V13.01,2013-01-04 02:46:00,
2013-01-03 19:51:00,35.2,21.5,30.20,East,100,0.0,5.8,57,0.00,,---,0.00,VWS V13.01,2013-01-04 02:51:00,
2013-01-03 19:56:00,34.9,23.6,30.20,East,100,0.0,5.8,63,0.00,,---,0.00,VWS V13.01,2013-01-04 02:56:00,
2013-01-03 20:01:00,34.3,24.2,30.20,East,100,0.0,0.0,66,0.00,,---,0.00,VWS V13.01,2013-01-04 03:01:00,
2013-01-03 20:06:00,34.2,24.4,30.20,North,5,0.0,0.0,67,0.00,,---,0.00,VWS V13.01,2013-01-04 03:06:00,
2013-01-03 20:11:00,34.0,23.8,30.20,North,357,0.0,0.0,66,0.00,,---,0.00,VWS V13.01,2013-01-04 03:11:00,
2013-01-03 20:16:00,34.0,22.7,30.23,NW,326,0.0,0.0,63,0.00,,---,0.00,VWS V13.01,2013-01-04 03:16:00,
2013-01-03 20:21:00,33.8,22.2,30.23,NW,326,0.0,0.0,62,0.00,,---,0.00,VWS V13.01,2013-01-04 03:21:00,
2013-01-03 20:27:00,33.8,21.8,30.23,NW,326,0.0,0.0,61,0.00,,---,0.00,VWS V13.01,2013-01-04 03:27:00,
2013-01-03 20:32:00,33.6,22.0,30.23,NW,326,0.0,0.0,62,0.00,,---,0.00,VWS V13.01,2013-01-04 03:32:00,
2013-01-03 20:37:00,33.4,22.2,30.23,NW,325,0.0,0.0,63,0.00,,---,0.00,VWS V13.01,2013-01-04 03:37:00,
2013-01-03 20:42:00,33.3,23.5,30.23,NNW,334,0.0,0.0,67,0.00,,---,0.00,VWS V13.01,2013-01-04 03:42:00,
2013-01-03 20:47:00,32.7,24.4,30.23,NNW,345,0.0,0.0,71,0.00,,---,0.00,VWS V13.01,2013-01-04 03:47:00,
2013-01-03 20:52:00,32.7,23.3,30.23,NNW,342,0.0,0.0,68,0.00,,---,0.00,VWS V13.01,2013-01-04 03:52:00,
2013-01-03 20:57:00,32.7,23.0,30.23,NW,318,0.0,0.0,67,0.00,,---,0.00,VWS V13.01,2013-01-04 03:57:00,
2013-01-03 21:02:00,32.5,23.2,30.23,NNW,327,0.0,0.0,68,0.00,,---,0.00,VWS V13.01,2013-01-04 04:02:00,
2013-01-03 21:07:00,32.5,22.1,30.23,NNW,327,0.0,0.0,65,0.00,,---,0.00,VWS V13.01,2013-01-04 04:07:00,
2013-01-03 21:13:00,32.2,20.6,30.23,WNW,300,0.0,0.0,62,0.00,,---,0.00,VWS V13.01,2013-01-04 04:13:00,
2013-01-03 21:18:00,32.0,20.9,30.23,WNW,300,0.0,0.0,63,0.00,,---,0.00,VWS V13.01,2013-01-04 04:18:00,
2013-01-03 21:23:00,32.0,21.9,30.23,WNW,299,3.1,4.9,66,0.00,,---,0.00,VWS V13.01,2013-01-04 04:23:00,
2013-01-03 21:28:00,32.2,21.0,30.23,WNW,282,5.4,5.4,63,0.00,,---,0.00,VWS V13.01,2013-01-04 04:28:00,
2013-01-03 21:33:00,32.2,23.2,30.23,NW,304,3.1,5.4,69,0.00,,---,0.00,VWS V13.01,2013-01-04 04:33:00,
2013-01-03 21:38:00,32.2,23.5,30.23,NW,307,4.0,5.4,70,0.00,,---,0.00,VWS V13.01,2013-01-04 04:38:00,
2013-01-03 21:43:00,32.2,24.2,30.23,NW,322,4.0,5.4,72,0.00,,---,0.00,VWS V13.01,2013-01-04 04:43:00,
2013-01-03 21:48:00,32.4,23.7,30.23,NNW,327,0.0,5.4,70,0.00,,---,0.00,VWS V13.01,2013-01-04 04:48:00,
2013-01-03 21:54:00,32.4,24.0,30.23,NNW,328,4.0,5.4,71,0.00,,---,0.00,VWS V13.01,2013-01-04 04:54:00,
2013-01-03 21:59:00,32.2,24.5,30.23,NW,326,5.4,5.8,73,0.00,,---,0.00,VWS V13.01,2013-01-04 04:59:00,
2013-01-03 22:01:00,32.2,24.8,30.23,NNW,344,3.6,3.6,74,0.00,,---,0.00,VWS V13.01,2013-01-04 05:01:00,
2013-01-03 22:03:00,32.2,25.2,30.23,NNW,346,3.1,4.0,75,0.00,,---,0.00,VWS V13.01,2013-01-04 05:03:00,
2013-01-03 22:07:00,32.2,25.2,30.23,NNE,29,3.6,4.0,75,0.00,,---,0.00,VWS V13.01,2013-01-04 05:07:00,
2013-01-03 22:12:00,32.5,25.5,30.23,NW,321,0.0,4.0,75,0.00,,---,0.00,VWS V13.01,2013-01-04 05:12:00,
2013-01-03 22:17:00,32.5,25.2,30.26,NNW,339,0.0,4.0,74,0.00,,---,0.00,VWS V13.01,2013-01-04 05:17:00,
2013-01-03 22:22:00,32.7,24.0,30.26,NW,307,0.0,4.0,70,0.00,,---,0.00,VWS V13.01,2013-01-04 05:22:00,
2013-01-03 22:27:00,32.7,23.0,30.26,WNW,295,0.0,4.0,67,0.00,,---,0.00,VWS V13.01,2013-01-04 05:27:00,
2013-01-03 22:32:00,32.5,22.5,30.26,WNW,295,0.0,4.0,66,0.00,,---,0.00,VWS V13.01,2013-01-04 05:32:00,
2013-01-03 22:37:00,32.5,22.8,30.26,WNW,297,0.0,4.0,67,0.00,,---,0.00,VWS V13.01,2013-01-04 05:37:00,
2013-01-03 22:42:00,32.4,23.0,30.26,NW,307,0.0,4.0,68,0.00,,---,0.00,VWS V13.01,2013-01-04 05:42:00,
2013-01-03 22:47:00,32.2,22.8,30.26,NW,308,0.0,4.0,68,0.00,,---,0.00,VWS V13.01,2013-01-04 05:47:00,
2013-01-03 22:52:00,32.2,22.8,30.26,NW,309,0.0,4.0,68,0.00,,---,0.00,VWS V13.01,2013-01-04 05:52:00,
2013-01-03 22:57:00,31.8,22.1,30.26,WNW,290,0.0,4.0,67,0.00,,---,0.00,VWS V13.01,2013-01-04 05:57:00,
2013-01-03 23:03:00,31.8,21.8,30.26,WNW,284,0.0,0.0,66,0.00,,---,0.00,VWS V13.01,2013-01-04 06:03:00,
2013-01-03 23:08:00,31.6,21.2,30.26,WNW,284,0.0,0.0,65,0.00,,---,0.00,VWS V13.01,2013-01-04 06:08:00,
2013-01-03 23:13:00,31.5,21.4,30.26,WNW,284,0.0,0.0,66,0.00,,---,0.00,VWS V13.01,2013-01-04 06:13:00,
2013-01-03 23:18:00,31.5,21.8,30.26,WNW,299,0.0,0.0,67,0.00,,---,0.00,VWS V13.01,2013-01-04 06:18:00,
2013-01-03 23:23:00,31.5,21.4,30.26,WNW,301,4.0,4.0,66,0.00,,---,0.00,VWS V13.01,2013-01-04 06:23:00,
2013-01-03 23:28:00,31.5,21.8,30.26,WNW,298,2.7,4.0,67,0.00,,---,0.00,VWS V13.01,2013-01-04 06:28:00,
2013-01-03 23:33:00,31.3,22.0,30.26,WNW,286,0.0,4.0,68,0.00,,---,0.00,VWS V13.01,2013-01-04 06:33:00,
2013-01-03 23:38:00,31.1,21.1,30.26,WNW,290,0.0,4.0,66,0.00,,---,0.00,VWS V13.01,2013-01-04 06:38:00,
2013-01-03 23:44:00,31.1,21.4,30.26,WNW,291,0.0,4.0,67,0.00,,---,0.00,VWS V13.01,2013-01-04 06:44:00,
2013-01-03 23:49:00,30.7,21.1,30.26,WNW,292,0.0,4.0,67,0.00,,---,0.00,VWS V13.01,2013-01-04 06:49:00,
2013-01-03 23:54:00,30.4,20.8,30.26,WNW,295,0.0,4.0,67,0.00,,---,0.00,VWS V13.01,2013-01-04 06:54:00,
2013-01-03 23:59:00,30.0,21.4,30.26,WNW,297,0.0,4.0,70,0.00,,---,0.00,VWS V13.01,2013-01-04 06:59:00,